Dipolog, Philippines
Current Conditions -  °F | °C
As of 6:00 AM on Friday 19 Dec 2014 (Local Time) from RPVM Reporting Station
Light Rain Light Rain  
Wind Chill: 77°   Ceiling: 8000
Heat Index: 78°   Visibility: 4mi
Dew Point: 75°   Wind: 14mph
Humidity: 94%   Direction: 360°N
Pressure: 29.91"   Gusts: NA
Location:  8.59°N, 123.35°E
Report Text: RPVM 182200Z 36012KT 7000 -RA SCT020 OVC080 25/24 Q1013 RMK A2991
Loading
Personal Weather Stations






























Interactive Weather Map New forecast layout! Learn more

10-Day Weather Forecast

Advertisements
Track Severe Weather on mobile